sensor_id;sensor_type;location;lat;lon;timestamp;temperature;humidity
316;DHT22;14128;48.686;9.738;2023-06-14T00:00:47;10.60;99.90
316;DHT22;14128;48.686;9.738;2023-06-14T00:03:14;10.60;99.90
316;DHT22;14128;48.686;9.738;2023-06-14T00:05:43;10.50;99.90
316;DHT22;14128;48.686;9.738;2023-06-14T00:08:12;10.40;99.90
316;DHT22;14128;48.686;9.738;2023-06-14T00:10:39;10.40;99.90
316;DHT22;14128;48.686;9.738;2023-06-14T00:13:09;10.30;99.90
316;DHT22;14128;48.686;9.738;2023-06-14T00:15:36;10.30;99.90
316;DHT22;14128;48.686;9.738;2023-06-14T00:18:03;10.30;99.90
316;DHT22;14128;48.686;9.738;2023-06-14T00:20:32;10.20;99.90
316;DHT22;14128;48.686;9.738;2023-06-14T00:22:59;10.20;99.90
316;DHT22;14128;48.686;9.738;2023-06-14T00:25:26;10.20;99.90
316;DHT22;14128;48.686;9.738;2023-06-14T00:27:54;10.10;99.90
316;DHT22;14128;48.686;9.738;2023-06-14T00:30:22;10.10;99.90
316;DHT22;14128;48.686;9.738;2023-06-14T00:32:50;10.00;99.90
316;DHT22;14128;48.686;9.738;2023-06-14T00:35:17;10.00;99.90
316;DHT22;14128;48.686;9.738;2023-06-14T00:37:44;9.90;99.90
316;DHT22;14128;48.686;9.738;2023-06-14T00:40:11;9.90;99.90
316;DHT22;14128;48.686;9.738;2023-06-14T00:42:37;9.90;99.90
316;DHT22;14128;48.686;9.738;2023-06-14T00:45:05;9.80;99.90
316;DHT22;14128;48.686;9.738;2023-06-14T00:47:34;9.80;99.90
316;DHT22;14128;48.686;9.738;2023-06-14T00:50:03;9.80;99.90
316;DHT22;14128;48.686;9.738;2023-06-14T00:52:32;9.70;99.90
316;DHT22;14128;48.686;9.738;2023-06-14T00:55:00;9.70;99.90
316;DHT22;14128;48.686;9.738;2023-06-14T00:57:27;9.60;99.90
316;DHT22;14128;48.686;9.738;2023-06-14T00:59:55;9.60;99.90
316;DHT22;14128;48.686;9.738;2023-06-14T01:02:22;9.60;99.90
316;DHT22;14128;48.686;9.738;2023-06-14T01:04:51;9.50;99.90
316;DHT22;14128;48.686;9.738;2023-06-14T01:07:25;9.50;99.90
316;DHT22;14128;48.686;9.738;2023-06-14T01:10:08;9.40;99.90
316;DHT22;14128;48.686;9.738;2023-06-14T01:12:41;9.40;99.90
316;DHT22;14128;48.686;9.738;2023-06-14T01:15:13;9.40;99.90
316;DHT22;14128;48.686;9.738;2023-06-14T01:17:41;9.30;99.90
316;DHT22;14128;48.686;9.738;2023-06-14T01:20:12;9.30;99.90
316;DHT22;14128;48.686;9.738;2023-06-14T01:22:51;9.30;99.90
316;DHT22;14128;48.686;9.738;2023-06-14T01:25:18;9.20;99.90
316;DHT22;14128;48.686;9.738;2023-06-14T01:27:47;9.20;99.90
316;DHT22;14128;48.686;9.738;2023-06-14T01:30:15;9.10;99.90
316;DHT22;14128;48.686;9.738;2023-06-14T01:32:44;9.10;99.90
316;DHT22;14128;48.686;9.738;2023-06-14T01:35:11;9.10;99.90
316;DHT22;14128;48.686;9.738;2023-06-14T01:37:40;9.10;99.90
316;DHT22;14128;48.686;9.738;2023-06-14T01:40:10;9.10;99.90
316;DHT22;14128;48.686;9.738;2023-06-14T01:42:38;9.10;99.90
316;DHT22;14128;48.686;9.738;2023-06-14T01:45:06;9.10;99.90
316;DHT22;14128;48.686;9.738;2023-06-14T01:47:34;9.10;99.90
316;DHT22;14128;48.686;9.738;2023-06-14T01:50:01;9.10;99.90
316;DHT22;14128;48.686;9.738;2023-06-14T01:52:28;9.10;99.90
316;DHT22;14128;48.686;9.738;2023-06-14T01:54:55;9.10;99.90
316;DHT22;14128;48.686;9.738;2023-06-14T01:57:25;9.10;99.90
316;DHT22;14128;48.686;9.738;2023-06-14T01:59:52;9.20;99.90
316;DHT22;14128;48.686;9.738;2023-06-14T02:02:20;9.10;99.90
316;DHT22;14128;48.686;9.738;2023-06-14T02:04:47;9.20;99.90
316;DHT22;14128;48.686;9.738;2023-06-14T02:07:14;9.10;99.90
316;DHT22;14128;48.686;9.738;2023-06-14T02:09:41;9.10;99.90
316;DHT22;14128;48.686;9.738;2023-06-14T02:12:08;9.10;99.90
316;DHT22;14128;48.686;9.738;2023-06-14T02:14:37;9.00;99.90
316;DHT22;14128;48.686;9.738;2023-06-14T02:17:05;9.00;99.90
316;DHT22;14128;48.686;9.738;2023-06-14T02:19:32;9.00;99.90
316;DHT22;14128;48.686;9.738;2023-06-14T02:21:58;9.00;99.90
316;DHT22;14128;48.686;9.738;2023-06-14T02:24:25;9.10;99.90
316;DHT22;14128;48.686;9.738;2023-06-14T02:26:52;9.00;99.90
316;DHT22;14128;48.686;9.738;2023-06-14T02:29:19;9.00;99.90
316;DHT22;14128;48.686;9.738;2023-06-14T02:31:47;9.00;99.90
316;DHT22;14128;48.686;9.738;2023-06-14T02:34:15;9.00;99.90
316;DHT22;14128;48.686;9.738;2023-06-14T02:36:43;8.90;99.90
316;DHT22;14128;48.686;9.738;2023-06-14T02:39:10;8.90;99.90
316;DHT22;14128;48.686;9.738;2023-06-14T02:41:37;8.90;99.90
316;DHT22;14128;48.686;9.738;2023-06-14T02:44:04;8.90;99.90
316;DHT22;14128;48.686;9.738;2023-06-14T02:46:31;8.80;99.90
316;DHT22;14128;48.686;9.738;2023-06-14T02:49:00;8.70;99.90
316;DHT22;14128;48.686;9.738;2023-06-14T02:51:27;8.70;99.90
316;DHT22;14128;48.686;9.738;2023-06-14T02:53:53;8.60;99.90
316;DHT22;14128;48.686;9.738;2023-06-14T02:56:20;8.60;99.90
316;DHT22;14128;48.686;9.738;2023-06-14T02:58:48;8.60;99.90
316;DHT22;14128;48.686;9.738;2023-06-14T03:01:16;8.50;99.90
316;DHT22;14128;48.686;9.738;2023-06-14T03:03:43;8.40;99.90
316;DHT22;14128;48.686;9.738;2023-06-14T03:06:11;8.40;99.90
316;DHT22;14128;48.686;9.738;2023-06-14T03:08:39;8.30;99.90
316;DHT22;14128;48.686;9.738;2023-06-14T03:11:07;8.30;99.90
316;DHT22;14128;48.686;9.738;2023-06-14T03:13:34;8.30;99.90
316;DHT22;14128;48.686;9.738;2023-06-14T03:16:01;8.30;99.90
316;DHT22;14128;48.686;9.738;2023-06-14T03:18:29;8.30;99.90
316;DHT22;14128;48.686;9.738;2023-06-14T03:21:00;8.30;99.90
316;DHT22;14128;48.686;9.738;2023-06-14T03:23:29;8.30;99.90
316;DHT22;14128;48.686;9.738;2023-06-14T03:25:56;8.30;99.90
316;DHT22;14128;48.686;9.738;2023-06-14T03:28:23;8.30;99.90
316;DHT22;14128;48.686;9.738;2023-06-14T03:30:51;8.30;99.90
316;DHT22;14128;48.686;9.738;2023-06-14T03:33:18;8.30;99.90
316;DHT22;14128;48.686;9.738;2023-06-14T03:35:46;8.30;99.90
316;DHT22;14128;48.686;9.738;2023-06-14T03:38:13;8.30;99.90
316;DHT22;14128;48.686;9.738;2023-06-14T03:40:41;8.40;99.90
316;DHT22;14128;48.686;9.738;2023-06-14T03:43:08;8.40;99.90
316;DHT22;14128;48.686;9.738;2023-06-14T03:45:35;8.40;99.90
316;DHT22;14128;48.686;9.738;2023-06-14T03:48:02;8.40;99.90
316;DHT22;14128;48.686;9.738;2023-06-14T03:50:32;8.40;99.90
316;DHT22;14128;48.686;9.738;2023-06-14T03:52:58;8.40;99.90
316;DHT22;14128;48.686;9.738;2023-06-14T03:55:26;8.50;99.90
316;DHT22;14128;48.686;9.738;2023-06-14T03:57:58;8.50;99.90
316;DHT22;14128;48.686;9.738;2023-06-14T04:00:25;8.60;99.90
316;DHT22;14128;48.686;9.738;2023-06-14T04:02:52;8.60;99.90
316;DHT22;14128;48.686;9.738;2023-06-14T04:05:19;8.60;99.90
316;DHT22;14128;48.686;9.738;2023-06-14T04:07:46;8.70;99.90
316;DHT22;14128;48.686;9.738;2023-06-14T04:10:15;8.70;99.90
316;DHT22;14128;48.686;9.738;2023-06-14T04:12:42;8.70;99.90
316;DHT22;14128;48.686;9.738;2023-06-14T04:15:10;8.70;99.90
316;DHT22;14128;48.686;9.738;2023-06-14T04:17:37;8.80;99.90
316;DHT22;14128;48.686;9.738;2023-06-14T04:20:05;8.80;99.90
316;DHT22;14128;48.686;9.738;2023-06-14T04:22:35;8.90;99.90
316;DHT22;14128;48.686;9.738;2023-06-14T04:25:02;8.90;99.90
316;DHT22;14128;48.686;9.738;2023-06-14T04:27:31;9.00;99.90
316;DHT22;14128;48.686;9.738;2023-06-14T04:30:02;9.20;99.90
316;DHT22;14128;48.686;9.738;2023-06-14T04:32:30;9.20;99.90
316;DHT22;14128;48.686;9.738;2023-06-14T04:34:59;9.30;99.90
316;DHT22;14128;48.686;9.738;2023-06-14T04:37:28;9.40;99.90
316;DHT22;14128;48.686;9.738;2023-06-14T04:39:56;9.50;99.90
316;DHT22;14128;48.686;9.738;2023-06-14T04:42:23;9.50;99.90
316;DHT22;14128;48.686;9.738;2023-06-14T04:44:56;9.60;99.90
316;DHT22;14128;48.686;9.738;2023-06-14T04:47:24;9.70;99.90
316;DHT22;14128;48.686;9.738;2023-06-14T04:49:56;9.80;99.90
316;DHT22;14128;48.686;9.738;2023-06-14T04:52:23;9.90;99.90
316;DHT22;14128;48.686;9.738;2023-06-14T04:54:52;10.00;99.90
316;DHT22;14128;48.686;9.738;2023-06-14T04:57:19;10.00;99.90
316;DHT22;14128;48.686;9.738;2023-06-14T04:59:48;10.20;99.90
316;DHT22;14128;48.686;9.738;2023-06-14T05:02:20;10.20;99.90
316;DHT22;14128;48.686;9.738;2023-06-14T05:04:47;10.40;99.90
316;DHT22;14128;48.686;9.738;2023-06-14T05:07:15;10.50;99.90
316;DHT22;14128;48.686;9.738;2023-06-14T05:09:42;10.70;99.90
316;DHT22;14128;48.686;9.738;2023-06-14T05:12:09;10.70;99.90
316;DHT22;14128;48.686;9.738;2023-06-14T05:14:36;10.90;99.90
316;DHT22;14128;48.686;9.738;2023-06-14T05:17:04;11.10;99.90
316;DHT22;14128;48.686;9.738;2023-06-14T05:19:31;11.20;99.90
316;DHT22;14128;48.686;9.738;2023-06-14T05:21:58;11.40;99.90
316;DHT22;14128;48.686;9.738;2023-06-14T05:24:26;11.50;99.90
316;DHT22;14128;48.686;9.738;2023-06-14T05:26:55;11.60;99.90
316;DHT22;14128;48.686;9.738;2023-06-14T05:29:21;11.80;99.90
316;DHT22;14128;48.686;9.738;2023-06-14T05:31:48;12.00;99.90
316;DHT22;14128;48.686;9.738;2023-06-14T05:34:15;12.00;99.90
316;DHT22;14128;48.686;9.738;2023-06-14T05:36:42;12.30;99.90
316;DHT22;14128;48.686;9.738;2023-06-14T05:39:09;12.30;99.90
316;DHT22;14128;48.686;9.738;2023-06-14T05:41:37;12.40;99.90
316;DHT22;14128;48.686;9.738;2023-06-14T05:44:04;12.50;99.90
316;DHT22;14128;48.686;9.738;2023-06-14T05:46:31;12.60;99.90
316;DHT22;14128;48.686;9.738;2023-06-14T05:48:57;12.70;99.90
316;DHT22;14128;48.686;9.738;2023-06-14T05:51:24;12.90;99.90
316;DHT22;14128;48.686;9.738;2023-06-14T05:53:52;13.10;99.90
316;DHT22;14128;48.686;9.738;2023-06-14T05:56:19;13.20;99.90
316;DHT22;14128;48.686;9.738;2023-06-14T05:58:48;13.30;99.90
316;DHT22;14128;48.686;9.738;2023-06-14T06:01:16;13.40;99.90
316;DHT22;14128;48.686;9.738;2023-06-14T06:03:42;13.60;99.90
316;DHT22;14128;48.686;9.738;2023-06-14T06:06:11;13.70;99.90
316;DHT22;14128;48.686;9.738;2023-06-14T06:08:38;13.90;99.90
316;DHT22;14128;48.686;9.738;2023-06-14T06:11:06;14.00;99.90
316;DHT22;14128;48.686;9.738;2023-06-14T06:13:32;14.10;99.90
316;DHT22;14128;48.686;9.738;2023-06-14T06:16:02;14.10;99.90
316;DHT22;14128;48.686;9.738;2023-06-14T06:18:28;14.30;99.90
316;DHT22;14128;48.686;9.738;2023-06-14T06:20:55;14.40;99.90
316;DHT22;14128;48.686;9.738;2023-06-14T06:23:22;14.50;99.90
316;DHT22;14128;48.686;9.738;2023-06-14T06:25:49;14.60;99.90
316;DHT22;14128;48.686;9.738;2023-06-14T06:28:17;14.70;99.90
316;DHT22;14128;48.686;9.738;2023-06-14T06:30:43;14.70;99.90
316;DHT22;14128;48.686;9.738;2023-06-14T06:33:12;14.90;99.90
316;DHT22;14128;48.686;9.738;2023-06-14T06:35:39;15.10;99.90
316;DHT22;14128;48.686;9.738;2023-06-14T06:38:06;15.30;99.90
316;DHT22;14128;48.686;9.738;2023-06-14T06:40:34;15.40;99.90
316;DHT22;14128;48.686;9.738;2023-06-14T06:43:01;15.70;99.90
316;DHT22;14128;48.686;9.738;2023-06-14T06:45:28;15.80;99.90
316;DHT22;14128;48.686;9.738;2023-06-14T06:47:56;15.80;99.90
316;DHT22;14128;48.686;9.738;2023-06-14T06:50:24;15.90;99.90
316;DHT22;14128;48.686;9.738;2023-06-14T06:52:51;15.90;99.90
316;DHT22;14128;48.686;9.738;2023-06-14T06:55:18;16.00;99.90
316;DHT22;14128;48.686;9.738;2023-06-14T06:57:45;16.20;99.90
316;DHT22;14128;48.686;9.738;2023-06-14T07:00:12;16.50;99.90
316;DHT22;14128;48.686;9.738;2023-06-14T07:02:39;16.60;99.90
316;DHT22;14128;48.686;9.738;2023-06-14T07:05:06;16.70;99.90
316;DHT22;14128;48.686;9.738;2023-06-14T07:07:35;16.90;99.90
316;DHT22;14128;48.686;9.738;2023-06-14T07:10:02;16.90;99.90
316;DHT22;14128;48.686;9.738;2023-06-14T07:12:30;17.10;99.90
316;DHT22;14128;48.686;9.738;2023-06-14T07:14:59;17.30;99.90
316;DHT22;14128;48.686;9.738;2023-06-14T07:17:26;17.50;99.90
316;DHT22;14128;48.686;9.738;2023-06-14T07:19:53;17.50;99.90
316;DHT22;14128;48.686;9.738;2023-06-14T07:22:20;17.60;99.90
316;DHT22;14128;48.686;9.738;2023-06-14T07:24:48;17.70;99.90
316;DHT22;14128;48.686;9.738;2023-06-14T07:27:15;17.70;99.90
316;DHT22;14128;48.686;9.738;2023-06-14T07:29:42;17.90;99.90
316;DHT22;14128;48.686;9.738;2023-06-14T07:32:09;18.00;99.90
316;DHT22;14128;48.686;9.738;2023-06-14T07:34:35;17.90;99.90
316;DHT22;14128;48.686;9.738;2023-06-14T07:37:02;18.00;99.90
316;DHT22;14128;48.686;9.738;2023-06-14T07:39:29;18.00;99.90
316;DHT22;14128;48.686;9.738;2023-06-14T07:41:57;18.20;99.90
316;DHT22;14128;48.686;9.738;2023-06-14T07:44:24;18.30;99.90
316;DHT22;14128;48.686;9.738;2023-06-14T07:46:51;18.30;99.90
316;DHT22;14128;48.686;9.738;2023-06-14T07:49:18;18.40;99.90
316;DHT22;14128;48.686;9.738;2023-06-14T07:51:45;18.40;99.90
316;DHT22;14128;48.686;9.738;2023-06-14T07:54:13;18.50;99.90
316;DHT22;14128;48.686;9.738;2023-06-14T07:56:41;18.70;99.90
316;DHT22;14128;48.686;9.738;2023-06-14T07:59:09;18.80;99.90
316;DHT22;14128;48.686;9.738;2023-06-14T08:01:36;18.90;99.90
316;DHT22;14128;48.686;9.738;2023-06-14T08:04:03;19.00;99.90
316;DHT22;14128;48.686;9.738;2023-06-14T08:06:30;19.10;99.90
316;DHT22;14128;48.686;9.738;2023-06-14T08:08:58;19.10;99.90
316;DHT22;14128;48.686;9.738;2023-06-14T08:11:26;19.20;99.90
316;DHT22;14128;48.686;9.738;2023-06-14T08:13:52;19.30;99.90
316;DHT22;14128;48.686;9.738;2023-06-14T08:16:20;19.40;99.90
316;DHT22;14128;48.686;9.738;2023-06-14T08:18:49;19.30;99.90
316;DHT22;14128;48.686;9.738;2023-06-14T08:21:15;19.40;99.90
316;DHT22;14128;48.686;9.738;2023-06-14T08:23:43;19.50;99.90
316;DHT22;14128;48.686;9.738;2023-06-14T08:26:10;19.60;99.90
316;DHT22;14128;48.686;9.738;2023-06-14T08:28:37;19.70;99.90
316;DHT22;14128;48.686;9.738;2023-06-14T08:31:04;19.80;99.90
316;DHT22;14128;48.686;9.738;2023-06-14T08:33:32;19.90;99.90
316;DHT22;14128;48.686;9.738;2023-06-14T08:36:00;20.10;99.90
316;DHT22;14128;48.686;9.738;2023-06-14T08:38:27;20.10;99.90
316;DHT22;14128;48.686;9.738;2023-06-14T08:40:57;20.30;99.90
316;DHT22;14128;48.686;9.738;2023-06-14T08:43:24;20.30;1.00
316;DHT22;14128;48.686;9.738;2023-06-14T08:45:56;20.40;99.90
316;DHT22;14128;48.686;9.738;2023-06-14T08:48:26;20.50;1.00
316;DHT22;14128;48.686;9.738;2023-06-14T08:50:56;20.70;99.90
316;DHT22;14128;48.686;9.738;2023-06-14T08:53:28;20.80;99.90
316;DHT22;14128;48.686;9.738;2023-06-14T08:55:57;20.90;1.00
316;DHT22;14128;48.686;9.738;2023-06-14T08:58:26;20.90;1.00
316;DHT22;14128;48.686;9.738;2023-06-14T09:00:55;20.90;1.00
316;DHT22;14128;48.686;9.738;2023-06-14T09:03:22;20.90;99.90
316;DHT22;14128;48.686;9.738;2023-06-14T09:05:57;21.00;99.90
316;DHT22;14128;48.686;9.738;2023-06-14T09:08:26;21.10;1.00
316;DHT22;14128;48.686;9.738;2023-06-14T09:10:56;21.20;99.90
316;DHT22;14128;48.686;9.738;2023-06-14T09:13:23;21.30;1.00
316;DHT22;14128;48.686;9.738;2023-06-14T09:15:50;21.30;1.00
316;DHT22;14128;48.686;9.738;2023-06-14T09:18:17;21.50;1.00
316;DHT22;14128;48.686;9.738;2023-06-14T09:20:45;21.50;1.00
316;DHT22;14128;48.686;9.738;2023-06-14T09:23:20;21.60;1.00
316;DHT22;14128;48.686;9.738;2023-06-14T09:25:47;21.70;1.00
316;DHT22;14128;48.686;9.738;2023-06-14T09:28:14;21.70;1.00
316;DHT22;14128;48.686;9.738;2023-06-14T09:30:41;21.90;1.00
316;DHT22;14128;48.686;9.738;2023-06-14T09:33:08;22.00;1.00
316;DHT22;14128;48.686;9.738;2023-06-14T09:35:35;22.00;1.00
316;DHT22;14128;48.686;9.738;2023-06-14T09:38:02;22.00;1.00
316;DHT22;14128;48.686;9.738;2023-06-14T09:40:34;22.10;1.00
316;DHT22;14128;48.686;9.738;2023-06-14T09:43:03;22.10;1.00
316;DHT22;14128;48.686;9.738;2023-06-14T09:45:30;22.30;1.00
316;DHT22;14128;48.686;9.738;2023-06-14T09:47:58;22.40;1.00
316;DHT22;14128;48.686;9.738;2023-06-14T09:50:24;22.10;1.00
316;DHT22;14128;48.686;9.738;2023-06-14T09:52:52;21.90;1.00
316;DHT22;14128;48.686;9.738;2023-06-14T09:55:21;21.70;1.00
316;DHT22;14128;48.686;9.738;2023-06-14T09:57:50;21.60;1.00
316;DHT22;14128;48.686;9.738;2023-06-14T10:00:18;21.70;1.00
316;DHT22;14128;48.686;9.738;2023-06-14T10:02:54;22.00;1.00
316;DHT22;14128;48.686;9.738;2023-06-14T10:05:25;22.20;1.00
316;DHT22;14128;48.686;9.738;2023-06-14T10:07:59;22.10;1.00
316;DHT22;14128;48.686;9.738;2023-06-14T10:10:26;22.20;1.00
316;DHT22;14128;48.686;9.738;2023-06-14T10:12:55;22.60;1.00
316;DHT22;14128;48.686;9.738;2023-06-14T10:15:26;22.90;1.00
316;DHT22;14128;48.686;9.738;2023-06-14T10:17:59;23.20;1.00
316;DHT22;14128;48.686;9.738;2023-06-14T10:20:30;23.20;1.00
316;DHT22;14128;48.686;9.738;2023-06-14T10:23:03;23.30;1.00
316;DHT22;14128;48.686;9.738;2023-06-14T10:25:32;23.30;1.00
316;DHT22;14128;48.686;9.738;2023-06-14T10:28:15;23.10;1.00
316;DHT22;14128;48.686;9.738;2023-06-14T10:31:04;22.80;1.00
316;DHT22;14128;48.686;9.738;2023-06-14T10:33:31;22.80;1.00
316;DHT22;14128;48.686;9.738;2023-06-14T10:36:25;23.10;1.00
316;DHT22;14128;48.686;9.738;2023-06-14T10:39:00;23.50;1.00
316;DHT22;14128;48.686;9.738;2023-06-14T10:41:28;23.70;1.00
316;DHT22;14128;48.686;9.738;2023-06-14T10:44:32;24.00;1.00
316;DHT22;14128;48.686;9.738;2023-06-14T10:47:00;24.00;1.00
316;DHT22;14128;48.686;9.738;2023-06-14T10:49:40;24.20;1.00
316;DHT22;14128;48.686;9.738;2023-06-14T10:52:09;24.20;1.00
316;DHT22;14128;48.686;9.738;2023-06-14T10:55:04;23.90;1.00
316;DHT22;14128;48.686;9.738;2023-06-14T10:57:32;23.90;1.00
316;DHT22;14128;48.686;9.738;2023-06-14T11:00:01;23.90;1.00
316;DHT22;14128;48.686;9.738;2023-06-14T11:02:55;23.70;1.00
316;DHT22;14128;48.686;9.738;2023-06-14T11:05:27;23.60;1.00
316;DHT22;14128;48.686;9.738;2023-06-14T11:08:27;23.70;1.00
316;DHT22;14128;48.686;9.738;2023-06-14T11:10:59;24.00;1.00
316;DHT22;14128;48.686;9.738;2023-06-14T11:13:26;23.70;1.00
316;DHT22;14128;48.686;9.738;2023-06-14T11:15:55;23.50;1.00
316;DHT22;14128;48.686;9.738;2023-06-14T11:18:23;23.20;1.00
316;DHT22;14128;48.686;9.738;2023-06-14T11:20:52;22.90;1.00
316;DHT22;14128;48.686;9.738;2023-06-14T11:23:21;22.80;1.00
316;DHT22;14128;48.686;9.738;2023-06-14T11:25:50;23.20;1.00
316;DHT22;14128;48.686;9.738;2023-06-14T11:28:17;23.80;1.00
316;DHT22;14128;48.686;9.738;2023-06-14T11:30:47;24.60;1.00
316;DHT22;14128;48.686;9.738;2023-06-14T11:33:18;25.30;1.00
316;DHT22;14128;48.686;9.738;2023-06-14T11:35:45;25.60;1.00
316;DHT22;14128;48.686;9.738;2023-06-14T11:38:12;25.90;1.00
316;DHT22;14128;48.686;9.738;2023-06-14T11:40:39;26.50;1.00
316;DHT22;14128;48.686;9.738;2023-06-14T11:43:06;27.20;1.00
316;DHT22;14128;48.686;9.738;2023-06-14T11:45:33;27.80;1.00
316;DHT22;14128;48.686;9.738;2023-06-14T11:48:00;27.70;1.00
316;DHT22;14128;48.686;9.738;2023-06-14T11:50:29;27.60;1.00
316;DHT22;14128;48.686;9.738;2023-06-14T11:52:59;27.20;1.00
316;DHT22;14128;48.686;9.738;2023-06-14T11:55:32;27.00;1.00
316;DHT22;14128;48.686;9.738;2023-06-14T11:57:59;26.90;1.00
316;DHT22;14128;48.686;9.738;2023-06-14T12:00:26;26.60;1.00
316;DHT22;14128;48.686;9.738;2023-06-14T12:02:53;25.80;1.00
316;DHT22;14128;48.686;9.738;2023-06-14T12:05:21;25.00;1.00
316;DHT22;14128;48.686;9.738;2023-06-14T12:07:50;24.80;1.00
316;DHT22;14128;48.686;9.738;2023-06-14T12:10:19;24.70;1.00
316;DHT22;14128;48.686;9.738;2023-06-14T12:12:46;25.10;1.00
316;DHT22;14128;48.686;9.738;2023-06-14T12:15:12;26.00;1.00
316;DHT22;14128;48.686;9.738;2023-06-14T12:17:39;26.30;1.00
316;DHT22;14128;48.686;9.738;2023-06-14T12:20:10;26.40;1.00
316;DHT22;14128;48.686;9.738;2023-06-14T12:22:39;26.50;1.00
316;DHT22;14128;48.686;9.738;2023-06-14T12:25:08;26.80;1.00
316;DHT22;14128;48.686;9.738;2023-06-14T12:27:35;27.30;1.00
316;DHT22;14128;48.686;9.738;2023-06-14T12:30:03;26.80;1.00
316;DHT22;14128;48.686;9.738;2023-06-14T12:32:30;26.80;1.00
316;DHT22;14128;48.686;9.738;2023-06-14T12:34:57;26.80;1.00
316;DHT22;14128;48.686;9.738;2023-06-14T12:37:24;26.80;1.00
316;DHT22;14128;48.686;9.738;2023-06-14T12:39:51;27.10;1.00
316;DHT22;14128;48.686;9.738;2023-06-14T12:42:19;27.60;1.00
316;DHT22;14128;48.686;9.738;2023-06-14T12:44:46;27.70;1.00
316;DHT22;14128;48.686;9.738;2023-06-14T12:47:12;29.20;1.00
316;DHT22;14128;48.686;9.738;2023-06-14T12:49:39;29.50;1.00
316;DHT22;14128;48.686;9.738;2023-06-14T12:52:08;29.70;1.00
316;DHT22;14128;48.686;9.738;2023-06-14T12:54:35;29.20;1.00
316;DHT22;14128;48.686;9.738;2023-06-14T12:57:05;28.30;1.00
316;DHT22;14128;48.686;9.738;2023-06-14T12:59:33;27.70;1.00
316;DHT22;14128;48.686;9.738;2023-06-14T13:02:11;27.70;1.00
316;DHT22;14128;48.686;9.738;2023-06-14T13:04:38;27.70;1.00
316;DHT22;14128;48.686;9.738;2023-06-14T13:07:05;28.90;1.00
316;DHT22;14128;48.686;9.738;2023-06-14T13:09:32;31.20;1.00
316;DHT22;14128;48.686;9.738;2023-06-14T13:11:59;32.90;1.00
316;DHT22;14128;48.686;9.738;2023-06-14T13:14:26;35.20;1.00
316;DHT22;14128;48.686;9.738;2023-06-14T13:16:54;36.80;1.00
316;DHT22;14128;48.686;9.738;2023-06-14T13:19:21;38.30;1.00
316;DHT22;14128;48.686;9.738;2023-06-14T13:21:48;39.50;1.00
316;DHT22;14128;48.686;9.738;2023-06-14T13:24:15;39.50;1.00
316;DHT22;14128;48.686;9.738;2023-06-14T13:26:42;38.90;99.90
316;DHT22;14128;48.686;9.738;2023-06-14T13:29:09;40.20;1.00
316;DHT22;14128;48.686;9.738;2023-06-14T13:31:36;37.50;1.00
316;DHT22;14128;48.686;9.738;2023-06-14T13:34:04;33.90;1.00
316;DHT22;14128;48.686;9.738;2023-06-14T13:36:32;32.10;1.00
316;DHT22;14128;48.686;9.738;2023-06-14T13:38:59;30.40;1.00
316;DHT22;14128;48.686;9.738;2023-06-14T13:41:27;29.30;1.00
316;DHT22;14128;48.686;9.738;2023-06-14T13:43:57;28.70;1.00
316;DHT22;14128;48.686;9.738;2023-06-14T13:46:25;28.40;1.00
316;DHT22;14128;48.686;9.738;2023-06-14T13:48:52;28.10;1.00
316;DHT22;14128;48.686;9.738;2023-06-14T13:51:21;27.60;1.00
316;DHT22;14128;48.686;9.738;2023-06-14T13:53:49;27.70;1.00
316;DHT22;14128;48.686;9.738;2023-06-14T13:56:16;28.00;1.00
316;DHT22;14128;48.686;9.738;2023-06-14T13:58:43;28.30;1.00
316;DHT22;14128;48.686;9.738;2023-06-14T14:01:11;28.90;1.00
316;DHT22;14128;48.686;9.738;2023-06-14T14:03:38;28.80;1.00
316;DHT22;14128;48.686;9.738;2023-06-14T14:06:05;28.90;1.00
316;DHT22;14128;48.686;9.738;2023-06-14T14:08:35;29.10;1.00
316;DHT22;14128;48.686;9.738;2023-06-14T14:11:02;30.80;1.00
316;DHT22;14128;48.686;9.738;2023-06-14T14:13:29;37.20;1.00
316;DHT22;14128;48.686;9.738;2023-06-14T14:15:56;42.10;40.10
316;DHT22;14128;48.686;9.738;2023-06-14T14:18:23;44.80;99.90
316;DHT22;14128;48.686;9.738;2023-06-14T14:20:50;42.80;99.90
316;DHT22;14128;48.686;9.738;2023-06-14T14:23:17;43.20;99.90
316;DHT22;14128;48.686;9.738;2023-06-14T14:25:47;40.30;99.90
316;DHT22;14128;48.686;9.738;2023-06-14T14:28:13;41.60;1.00
316;DHT22;14128;48.686;9.738;2023-06-14T14:30:41;44.80;1.00
316;DHT22;14128;48.686;9.738;2023-06-14T14:33:08;47.40;99.90
316;DHT22;14128;48.686;9.738;2023-06-14T14:35:41;47.40;99.90
316;DHT22;14128;48.686;9.738;2023-06-14T14:38:08;47.00;99.90
316;DHT22;14128;48.686;9.738;2023-06-14T14:40:35;48.70;1.00
316;DHT22;14128;48.686;9.738;2023-06-14T14:43:03;48.00;1.00
316;DHT22;14128;48.686;9.738;2023-06-14T14:45:30;46.00;1.00
316;DHT22;14128;48.686;9.738;2023-06-14T14:47:57;47.40;1.00
316;DHT22;14128;48.686;9.738;2023-06-14T14:50:25;46.40;1.00
316;DHT22;14128;48.686;9.738;2023-06-14T14:52:52;45.50;1.00
316;DHT22;14128;48.686;9.738;2023-06-14T14:55:19;46.30;99.90
316;DHT22;14128;48.686;9.738;2023-06-14T14:57:46;47.30;29.80
316;DHT22;14128;48.686;9.738;2023-06-14T15:00:15;49.10;30.40
316;DHT22;14128;48.686;9.738;2023-06-14T15:02:42;47.20;99.90
316;DHT22;14128;48.686;9.738;2023-06-14T15:05:09;48.60;98.10
316;DHT22;14128;48.686;9.738;2023-06-14T15:07:36;46.70;1.00
316;DHT22;14128;48.686;9.738;2023-06-14T15:10:06;43.50;99.90
316;DHT22;14128;48.686;9.738;2023-06-14T15:12:34;44.50;76.90
316;DHT22;14128;48.686;9.738;2023-06-14T15:15:01;46.80;99.90
316;DHT22;14128;48.686;9.738;2023-06-14T15:17:29;48.10;99.90
316;DHT22;14128;48.686;9.738;2023-06-14T15:19:56;48.70;26.40
316;DHT22;14128;48.686;9.738;2023-06-14T15:22:23;49.00;99.90
316;DHT22;14128;48.686;9.738;2023-06-14T15:24:50;46.50;68.40
316;DHT22;14128;48.686;9.738;2023-06-14T15:27:16;45.30;45.80
316;DHT22;14128;48.686;9.738;2023-06-14T15:29:43;44.30;99.90
316;DHT22;14128;48.686;9.738;2023-06-14T15:32:11;44.20;20.50
316;DHT22;14128;48.686;9.738;2023-06-14T15:34:39;44.50;99.90
316;DHT22;14128;48.686;9.738;2023-06-14T15:37:06;46.30;99.90
316;DHT22;14128;48.686;9.738;2023-06-14T15:39:33;44.50;99.90
316;DHT22;14128;48.686;9.738;2023-06-14T15:42:00;44.90;99.90
316;DHT22;14128;48.686;9.738;2023-06-14T15:44:27;46.00;99.90
316;DHT22;14128;48.686;9.738;2023-06-14T15:46:54;46.70;99.90
316;DHT22;14128;48.686;9.738;2023-06-14T15:49:20;47.20;1.00
316;DHT22;14128;48.686;9.738;2023-06-14T15:51:49;48.00;99.90
316;DHT22;14128;48.686;9.738;2023-06-14T15:54:15;47.50;1.00
316;DHT22;14128;48.686;9.738;2023-06-14T15:56:42;47.80;1.00
316;DHT22;14128;48.686;9.738;2023-06-14T15:59:09;47.10;1.00
316;DHT22;14128;48.686;9.738;2023-06-14T16:01:36;40.50;99.90
316;DHT22;14128;48.686;9.738;2023-06-14T16:04:03;38.50;1.00
316;DHT22;14128;48.686;9.738;2023-06-14T16:06:30;40.90;34.40
316;DHT22;14128;48.686;9.738;2023-06-14T16:08:59;41.90;82.80
316;DHT22;14128;48.686;9.738;2023-06-14T16:11:28;44.30;81.40
316;DHT22;14128;48.686;9.738;2023-06-14T16:13:55;45.40;99.90
316;DHT22;14128;48.686;9.738;2023-06-14T16:16:22;45.90;99.90
316;DHT22;14128;48.686;9.738;2023-06-14T16:18:48;45.50;99.90